createdAt,value
2019-01-19T00:00:21.812Z,-1.10
2019-01-19T00:03:32.454Z,-1.20
2019-01-19T00:06:36.316Z,-1.20
2019-01-19T00:09:18.073Z,-1.20
2019-01-19T00:12:28.968Z,-1.30
2019-01-19T00:15:08.589Z,-1.20
2019-01-19T00:18:14.670Z,-1.20
2019-01-19T00:21:34.229Z,-1.20
2019-01-19T00:24:29.651Z,-1.40
2019-01-19T00:27:27.924Z,-1.40
2019-01-19T00:30:40.204Z,-1.40
2019-01-19T00:33:44.596Z,-1.40
2019-01-19T00:37:10.053Z,-1.40
2019-01-19T00:40:16.132Z,-1.40
2019-01-19T00:43:09.150Z,-1.40
2019-01-19T00:46:26.017Z,-1.40
2019-01-19T00:49:24.281Z,-1.30
2019-01-19T00:52:46.632Z,-1.40
2019-01-19T00:55:40.189Z,-1.30
2019-01-19T00:58:22.452Z,-1.30
2019-01-19T01:01:12.645Z,-1.40
2019-01-19T01:04:16.400Z,-1.30
2019-01-19T01:07:31.641Z,-1.40
2019-01-19T01:10:18.368Z,-1.30
2019-01-19T01:13:19.983Z,-1.30
2019-01-19T01:16:11.868Z,-1.30
2019-01-19T01:19:10.712Z,-1.50
2019-01-19T01:22:35.144Z,-1.50
2019-01-19T01:25:15.788Z,-1.50
2019-01-19T01:27:51.165Z,-1.50
2019-01-19T01:31:01.028Z,-1.50
2019-01-19T01:33:59.724Z,-1.50
2019-01-19T01:36:57.120Z,-1.50
2019-01-19T01:39:40.980Z,-1.50
2019-01-19T01:42:31.768Z,-1.50
2019-01-19T01:45:32.400Z,-1.60
2019-01-19T01:48:39.717Z,-1.60
2019-01-19T01:52:01.944Z,-1.60
2019-01-19T01:54:44.881Z,-1.70
2019-01-19T01:57:20.219Z,-1.70
2019-01-19T02:00:09.248Z,-1.70
2019-01-19T02:03:19.844Z,-1.70
2019-01-19T02:06:08.256Z,-1.70
2019-01-19T02:09:11.672Z,-1.70
2019-01-19T02:12:16.756Z,-1.70
2019-01-19T02:15:03.245Z,-1.80
2019-01-19T02:18:14.708Z,-1.80
2019-01-19T02:21:25.609Z,-1.80
2019-01-19T02:24:21.093Z,-1.90
2019-01-19T02:27:31.548Z,-1.90
2019-01-19T02:30:37.361Z,-1.90
2019-01-19T02:33:42.849Z,-1.90
2019-01-19T02:36:52.428Z,-1.90
2019-01-19T02:40:04.809Z,-1.90
2019-01-19T02:43:01.691Z,-2.00
2019-01-19T02:46:27.164Z,-1.90
2019-01-19T02:49:23.006Z,-2.00
2019-01-19T02:52:40.881Z,-1.90
2019-01-19T02:55:51.642Z,-2.00
2019-01-19T02:59:11.377Z,-2.10
2019-01-19T03:02:26.574Z,-2.00
2019-01-19T03:05:30.153Z,-2.10
2019-01-19T03:08:28.521Z,-2.10
2019-01-19T03:11:26.198Z,-2.00
2019-01-19T03:14:36.401Z,-2.10
2019-01-19T03:17:56.149Z,-2.10
2019-01-19T03:20:53.842Z,-2.10
2019-01-19T03:23:59.725Z,-2.10
2019-01-19T03:26:58.546Z,-2.10
2019-01-19T03:29:45.817Z,-2.10
2019-01-19T03:32:49.237Z,-2.20
2019-01-19T03:35:45.737Z,-2.20
2019-01-19T03:38:51.768Z,-2.10
2019-01-19T03:41:47.229Z,-2.10
2019-01-19T03:44:59.251Z,-2.30
2019-01-19T03:48:17.616Z,-2.30
2019-01-19T03:51:30.010Z,-2.30
2019-01-19T03:54:27.525Z,-2.30
2019-01-19T03:57:09.171Z,-2.20
2019-01-19T03:59:58.053Z,-2.20
2019-01-19T04:03:01.760Z,-2.20
2019-01-19T04:06:12.722Z,-2.20
2019-01-19T04:09:29.358Z,-2.20
2019-01-19T04:12:34.726Z,-2.20
2019-01-19T04:15:44.052Z,-2.20
2019-01-19T04:18:24.461Z,-2.30
2019-01-19T04:21:22.398Z,-2.20
2019-01-19T04:24:22.460Z,-2.30
2019-01-19T04:26:55.805Z,-2.30
2019-01-19T04:29:24.783Z,-2.30
2019-01-19T04:31:53.833Z,-2.30
2019-01-19T04:34:23.264Z,-2.40
2019-01-19T04:36:52.492Z,-2.40
2019-01-19T04:39:21.537Z,-2.40
2019-01-19T04:41:50.529Z,-2.40
2019-01-19T04:44:19.493Z,-2.40
2019-01-19T04:46:48.540Z,-2.40
2019-01-19T04:49:17.589Z,-2.40
2019-01-19T04:51:46.613Z,-2.50
2019-01-19T04:54:15.792Z,-2.50
2019-01-19T04:56:44.857Z,-2.60
2019-01-19T04:59:13.889Z,-2.60
2019-01-19T05:01:43.229Z,-2.60
2019-01-19T05:04:12.260Z,-2.60
2019-01-19T05:06:41.333Z,-2.60
2019-01-19T05:09:10.377Z,-2.60
2019-01-19T05:11:39.528Z,-2.60
2019-01-19T05:14:08.577Z,-2.60
2019-01-19T05:16:37.570Z,-2.70
2019-01-19T05:19:06.616Z,-2.70
2019-01-19T05:21:35.651Z,-2.70
2019-01-19T05:24:04.734Z,-2.70
2019-01-19T05:26:33.734Z,-2.70
2019-01-19T05:29:02.713Z,-2.70
2019-01-19T05:31:31.832Z,-2.70
2019-01-19T05:34:00.792Z,-2.60
2019-01-19T05:36:29.765Z,-2.60
2019-01-19T05:38:58.724Z,-2.60
2019-01-19T05:41:27.818Z,-2.70
2019-01-19T05:43:56.781Z,-2.70
2019-01-19T05:46:25.794Z,-2.80
2019-01-19T05:48:54.746Z,-2.80
2019-01-19T05:51:23.850Z,-2.80
2019-01-19T05:53:52.773Z,-2.80
2019-01-19T05:56:21.684Z,-2.80
2019-01-19T05:58:50.725Z,-2.90
2019-01-19T06:01:20.209Z,-2.90
2019-01-19T06:03:51.570Z,-2.90
2019-01-19T06:06:20.940Z,-2.90
2019-01-19T06:08:49.907Z,-2.90
2019-01-19T06:11:19.129Z,-3.00
2019-01-19T06:13:48.088Z,-3.00
2019-01-19T06:16:17.153Z,-3.00
2019-01-19T06:18:46.616Z,-3.00
2019-01-19T06:21:16.969Z,-3.00
2019-01-19T06:23:45.873Z,-2.90
2019-01-19T06:26:14.852Z,-2.90
2019-01-19T06:28:43.828Z,-3.00
2019-01-19T06:31:12.865Z,-3.00
2019-01-19T06:33:41.841Z,-3.00
2019-01-19T06:36:10.909Z,-3.00
2019-01-19T06:38:39.966Z,-3.00
2019-01-19T06:41:09.020Z,-3.00
2019-01-19T06:43:38.080Z,-3.00
2019-01-19T06:46:07.088Z,-2.90
2019-01-19T06:48:36.077Z,-2.90
2019-01-19T06:51:05.036Z,-3.00
2019-01-19T06:53:35.368Z,-3.00
2019-01-19T06:56:04.429Z,-3.10
2019-01-19T06:58:33.401Z,-3.00
2019-01-19T07:01:02.461Z,-3.00
2019-01-19T07:03:31.559Z,-3.00
2019-01-19T07:06:00.668Z,-2.90
2019-01-19T07:08:29.719Z,-2.90
2019-01-19T07:10:58.854Z,-2.90
2019-01-19T07:13:27.809Z,-2.90
2019-01-19T07:15:56.769Z,-2.90
2019-01-19T07:18:25.872Z,-2.80
2019-01-19T07:20:54.915Z,-2.80
2019-01-19T07:23:23.952Z,-2.80
2019-01-19T07:25:53.118Z,-2.90
2019-01-19T07:28:22.165Z,-2.90
2019-01-19T07:30:51.223Z,-2.90
2019-01-19T07:33:20.313Z,-2.80
2019-01-19T07:35:49.317Z,-2.80
2019-01-19T07:38:18.270Z,-2.80
2019-01-19T07:40:47.264Z,-2.80
2019-01-19T07:43:16.452Z,-2.80
2019-01-19T07:45:45.603Z,-2.70
2019-01-19T07:48:14.732Z,-2.70
2019-01-19T07:50:43.700Z,-2.60
2019-01-19T07:53:12.785Z,-2.60
2019-01-19T07:55:41.836Z,-2.60
2019-01-19T07:58:10.778Z,-2.50
2019-01-19T08:00:39.815Z,-2.50
2019-01-19T08:03:08.784Z,-2.50
2019-01-19T08:05:37.823Z,-2.50
2019-01-19T08:08:06.853Z,-2.50
2019-01-19T08:10:35.896Z,-2.50
2019-01-19T08:13:04.948Z,-2.40
2019-01-19T08:15:33.975Z,-2.40
2019-01-19T08:18:03.022Z,-2.40
2019-01-19T08:20:31.975Z,-2.40
2019-01-19T08:23:01.076Z,-2.40
2019-01-19T08:25:30.165Z,-2.50
2019-01-19T08:27:59.160Z,-2.40
2019-01-19T08:30:30.817Z,-2.40
2019-01-19T08:32:59.815Z,-2.30
2019-01-19T08:35:29.379Z,-2.30
2019-01-19T08:37:58.389Z,-2.20
2019-01-19T08:40:31.796Z,-2.20
2019-01-19T08:43:07.926Z,-2.10
2019-01-19T08:45:36.967Z,-2.00
2019-01-19T08:48:06.246Z,-1.80
2019-01-19T08:50:35.398Z,-1.80
2019-01-19T08:53:04.425Z,-1.70
2019-01-19T08:55:33.454Z,-1.60
2019-01-19T08:58:02.569Z,-1.40
2019-01-19T09:00:31.553Z,-1.40
2019-01-19T09:03:00.656Z,-1.40
2019-01-19T09:05:29.708Z,-1.30
2019-01-19T09:07:58.695Z,-1.10
2019-01-19T09:10:27.778Z,-1.10
2019-01-19T09:12:56.808Z,-1.10
2019-01-19T09:15:25.972Z,-0.40
2019-01-19T09:17:54.952Z,-0.10
2019-01-19T09:20:24.157Z,0.10
2019-01-19T09:22:57.404Z,-0.20
2019-01-19T09:25:26.430Z,-0.40
2019-01-19T09:27:55.516Z,0.00
2019-01-19T09:30:24.512Z,-0.30
2019-01-19T09:32:53.797Z,-0.60
2019-01-19T09:35:22.977Z,-0.90
2019-01-19T09:37:51.973Z,-0.90
2019-01-19T09:40:21.031Z,-1.00
2019-01-19T09:42:50.187Z,-1.00
2019-01-19T09:45:19.389Z,-1.00
2019-01-19T09:47:48.541Z,-0.60
2019-01-19T09:50:17.796Z,-0.50
2019-01-19T09:52:46.954Z,-0.80
2019-01-19T09:55:16.045Z,-0.50
2019-01-19T09:57:45.085Z,-0.40
2019-01-19T10:00:15.935Z,-0.60
2019-01-19T10:02:44.932Z,-0.90
2019-01-19T10:05:16.911Z,-0.70
2019-01-19T10:07:48.654Z,-0.70
2019-01-19T10:10:16.768Z,-0.80
2019-01-19T10:12:45.812Z,-0.80
2019-01-19T10:15:16.750Z,-0.30
2019-01-19T10:17:45.838Z,-0.30
2019-01-19T10:20:17.790Z,-0.70
2019-01-19T10:22:46.877Z,-0.60
2019-01-19T10:25:16.069Z,-0.80
2019-01-19T10:27:45.396Z,-0.80
2019-01-19T10:30:24.152Z,-0.70
2019-01-19T10:32:53.000Z,-0.80
2019-01-19T10:35:22.168Z,-0.90
2019-01-19T10:37:56.185Z,-1.10
2019-01-19T10:40:22.014Z,-0.80
2019-01-19T10:42:50.980Z,-0.80
2019-01-19T10:45:22.240Z,-1.00
2019-01-19T10:47:51.441Z,-1.10
2019-01-19T10:50:20.472Z,-0.80
2019-01-19T10:52:49.482Z,-0.80
2019-01-19T10:55:19.797Z,-1.20
2019-01-19T10:57:48.872Z,-1.10
2019-01-19T11:00:20.425Z,-1.20
2019-01-19T11:02:49.469Z,-1.30
2019-01-19T11:05:18.678Z,-1.10
2019-01-19T11:07:48.693Z,-1.30
2019-01-19T11:10:20.735Z,-1.20
2019-01-19T11:12:49.850Z,-1.20
2019-01-19T11:15:18.933Z,-1.20
2019-01-19T11:17:48.065Z,-1.00
2019-01-19T11:20:21.745Z,-1.30
2019-01-19T11:22:51.037Z,-1.10
2019-01-19T11:25:20.230Z,-1.00
2019-01-19T11:27:49.253Z,-1.00
2019-01-19T11:30:23.140Z,-1.10
2019-01-19T11:32:52.204Z,-0.70
2019-01-19T11:35:21.209Z,-0.70
2019-01-19T11:37:50.293Z,-0.70
2019-01-19T11:40:31.164Z,-1.20
2019-01-19T11:43:00.077Z,-1.10
2019-01-19T11:45:29.149Z,-1.10
2019-01-19T11:47:58.361Z,-0.90
2019-01-19T11:50:27.456Z,-1.00
2019-01-19T11:52:56.592Z,-0.90
2019-01-19T11:55:25.653Z,-1.40
2019-01-19T11:57:57.451Z,-1.20
2019-01-19T12:00:28.504Z,-1.20
2019-01-19T12:02:57.496Z,-1.30
2019-01-19T12:05:26.662Z,-1.10
2019-01-19T12:07:55.692Z,-1.40
2019-01-19T12:10:27.004Z,-1.70
2019-01-19T12:12:57.447Z,-1.70
2019-01-19T12:15:26.785Z,-1.30
2019-01-19T12:17:55.837Z,-1.10
2019-01-19T12:20:36.442Z,-1.30
2019-01-19T12:23:06.882Z,-1.30
2019-01-19T12:25:35.853Z,-1.30
2019-01-19T12:28:05.244Z,-1.20
2019-01-19T12:30:34.282Z,-1.20
2019-01-19T12:33:03.196Z,-1.20
2019-01-19T12:35:32.322Z,-1.30
2019-01-19T12:38:01.381Z,-1.20
2019-01-19T12:40:30.612Z,-1.20
2019-01-19T12:43:05.553Z,-1.20
2019-01-19T12:45:40.769Z,-1.20
2019-01-19T12:48:09.925Z,-1.20
2019-01-19T12:50:39.104Z,-1.10
2019-01-19T12:53:08.155Z,-1.10
2019-01-19T12:55:37.271Z,-1.30
2019-01-19T12:58:08.547Z,-1.00
2019-01-19T13:00:37.672Z,-1.30
2019-01-19T13:03:07.166Z,-1.50
2019-01-19T13:05:43.667Z,-1.20
2019-01-19T13:08:15.185Z,-1.30
2019-01-19T13:10:48.511Z,-1.50
2019-01-19T13:13:24.285Z,-1.30
2019-01-19T13:16:52.484Z,-1.10
2019-01-19T13:20:08.202Z,-1.10
2019-01-19T13:23:15.710Z,-1.20
2019-01-19T13:26:20.219Z,-1.40
2019-01-19T13:29:42.951Z,-1.20
2019-01-19T13:32:48.053Z,-1.30
2019-01-19T13:36:01.632Z,-1.40
2019-01-19T13:39:23.073Z,-1.40
2019-01-19T13:42:32.574Z,-1.40
2019-01-19T13:45:29.793Z,-1.30
2019-01-19T13:48:29.566Z,-1.20
2019-01-19T13:51:18.106Z,-1.10
2019-01-19T13:54:15.477Z,-1.10
2019-01-19T13:57:24.674Z,-1.00
2019-01-19T14:00:22.266Z,-1.10
2019-01-19T14:03:41.645Z,-1.30
2019-01-19T14:06:32.522Z,-1.10
2019-01-19T14:09:30.420Z,-1.20
2019-01-19T14:12:22.224Z,-1.20
2019-01-19T14:15:31.702Z,-1.40
2019-01-19T14:18:37.477Z,-1.40
2019-01-19T14:22:18.496Z,-1.40
2019-01-19T14:25:24.490Z,-1.40
2019-01-19T14:28:38.364Z,-1.20
2019-01-19T14:31:54.300Z,-1.10
2019-01-19T14:34:36.508Z,-1.20
2019-01-19T14:37:40.187Z,-1.00
2019-01-19T14:40:53.448Z,-1.10
2019-01-19T14:43:42.861Z,-1.20
2019-01-19T14:46:26.120Z,-1.40
2019-01-19T14:49:31.481Z,-1.30
2019-01-19T14:52:51.049Z,-1.20
2019-01-19T14:55:46.017Z,-1.20
2019-01-19T14:58:53.480Z,-1.30
2019-01-19T15:02:04.125Z,-1.40
2019-01-19T15:04:48.826Z,-1.50
2019-01-19T15:08:07.324Z,-1.40
2019-01-19T15:11:05.947Z,-1.30
2019-01-19T15:14:10.215Z,-1.30
2019-01-19T15:17:17.486Z,-1.40
2019-01-19T15:20:19.499Z,-1.40
2019-01-19T15:23:25.021Z,-1.50
2019-01-19T15:26:56.840Z,-1.30
2019-01-19T15:30:06.831Z,-1.40
2019-01-19T15:33:12.041Z,-1.40
2019-01-19T15:36:20.757Z,-1.30
2019-01-19T15:39:20.193Z,-1.30
2019-01-19T15:42:39.667Z,-1.60
2019-01-19T15:45:41.467Z,-1.40
2019-01-19T15:48:36.993Z,-1.40
2019-01-19T15:51:40.985Z,-1.30
2019-01-19T15:54:41.861Z,-1.50
2019-01-19T15:58:07.369Z,-1.60
2019-01-19T16:01:29.454Z,-1.40
2019-01-19T16:04:24.458Z,-1.30
2019-01-19T16:07:27.338Z,-1.30
2019-01-19T16:10:33.537Z,-1.40
2019-01-19T16:13:33.652Z,-1.40
2019-01-19T16:16:45.118Z,-1.40
2019-01-19T16:19:55.281Z,-1.40
2019-01-19T16:22:59.744Z,-1.40
2019-01-19T16:26:02.717Z,-1.40
2019-01-19T16:29:08.015Z,-1.40
2019-01-19T16:32:19.346Z,-1.60
2019-01-19T16:35:33.104Z,-1.80
2019-01-19T16:38:43.425Z,-1.90
2019-01-19T16:42:12.196Z,-1.80
2019-01-19T16:45:13.941Z,-1.70
2019-01-19T16:48:03.557Z,-1.80
2019-01-19T16:51:22.601Z,-1.80
2019-01-19T16:54:42.587Z,-1.80
2019-01-19T16:57:30.693Z,-1.70
2019-01-19T17:00:43.297Z,-1.80
2019-01-19T17:04:05.998Z,-1.80
2019-01-19T17:07:13.074Z,-1.90
2019-01-19T17:10:28.521Z,-1.90
2019-01-19T17:13:53.289Z,-1.90
2019-01-19T17:17:10.911Z,-1.90
2019-01-19T17:20:27.944Z,-2.00
2019-01-19T17:23:19.437Z,-2.00
2019-01-19T17:26:35.961Z,-2.00
2019-01-19T17:29:34.741Z,-2.10
2019-01-19T17:32:20.726Z,-2.10
2019-01-19T17:35:42.874Z,-2.30
2019-01-19T17:39:01.961Z,-2.20
2019-01-19T17:42:01.457Z,-2.20
2019-01-19T17:45:09.859Z,-2.30
2019-01-19T17:48:03.987Z,-2.20
2019-01-19T17:51:16.498Z,-2.30
2019-01-19T17:54:48.122Z,-2.30
2019-01-19T17:57:43.666Z,-2.30
2019-01-19T18:00:56.784Z,-2.40
2019-01-19T18:04:19.229Z,-2.40
2019-01-19T18:07:27.200Z,-2.50
2019-01-19T18:10:36.593Z,-2.50
2019-01-19T18:13:48.104Z,-2.50
2019-01-19T18:17:23.845Z,-2.50
2019-01-19T18:20:18.688Z,-2.60
2019-01-19T18:23:24.378Z,-2.70
2019-01-19T18:26:18.622Z,-2.70
2019-01-19T18:29:21.665Z,-2.80
2019-01-19T18:32:38.509Z,-2.80
2019-01-19T18:35:57.716Z,-2.80
2019-01-19T18:39:11.777Z,-2.90
2019-01-19T18:42:25.385Z,-3.00
2019-01-19T18:45:06.889Z,-3.00
2019-01-19T18:48:18.659Z,-3.00
2019-01-19T18:51:19.615Z,-3.20
2019-01-19T18:54:20.334Z,-3.10
2019-01-19T18:57:26.977Z,-3.30
2019-01-19T19:00:13.722Z,-3.30
2019-01-19T19:03:12.903Z,-3.50
2019-01-19T19:06:12.000Z,-3.40
2019-01-19T19:09:25.297Z,-3.30
2019-01-19T19:12:25.281Z,-3.50
2019-01-19T19:15:25.288Z,-3.50
2019-01-19T19:18:41.589Z,-3.30
2019-01-19T19:21:40.678Z,-3.30
2019-01-19T19:24:51.007Z,-3.10
2019-01-19T19:28:01.541Z,-3.30
2019-01-19T19:30:53.535Z,-3.40
2019-01-19T19:33:54.790Z,-3.60
2019-01-19T19:36:46.360Z,-3.70
2019-01-19T19:39:53.719Z,-3.80
2019-01-19T19:43:27.525Z,-3.70
2019-01-19T19:46:37.569Z,-3.90
2019-01-19T19:49:41.024Z,-3.90
2019-01-19T19:52:11.564Z,-3.90
2019-01-19T19:54:50.344Z,-3.90
2019-01-19T19:57:20.744Z,-3.90
2019-01-19T19:59:49.857Z,-3.90
2019-01-19T20:02:19.001Z,-3.90
2019-01-19T20:04:48.183Z,-4.00
2019-01-19T20:07:17.287Z,-3.80
2019-01-19T20:09:46.329Z,-3.70
2019-01-19T20:12:15.373Z,-3.70
2019-01-19T20:14:44.339Z,-3.60
2019-01-19T20:17:13.432Z,-3.60
2019-01-19T20:19:42.675Z,-3.60
2019-01-19T20:22:11.780Z,-3.70
2019-01-19T20:24:40.708Z,-3.60
2019-01-19T20:27:09.829Z,-3.60
2019-01-19T20:29:38.892Z,-3.60
2019-01-19T20:32:08.014Z,-3.60
2019-01-19T20:34:37.072Z,-3.70
2019-01-19T20:37:06.169Z,-3.60
2019-01-19T20:39:35.233Z,-3.60
2019-01-19T20:42:04.416Z,-3.60
2019-01-19T20:44:33.408Z,-3.60
2019-01-19T20:47:02.528Z,-3.70
2019-01-19T20:49:31.626Z,-3.80
2019-01-19T20:52:00.691Z,-3.80
2019-01-19T20:54:29.813Z,-3.70
2019-01-19T20:56:58.872Z,-3.80
2019-01-19T20:59:27.989Z,-3.70
2019-01-19T21:01:57.096Z,-3.70
2019-01-19T21:04:26.094Z,-3.70
2019-01-19T21:06:55.294Z,-3.70
2019-01-19T21:09:24.457Z,-3.70
2019-01-19T21:11:53.567Z,-3.70
2019-01-19T21:14:23.492Z,-4.10
2019-01-19T21:16:52.621Z,-3.90
2019-01-19T21:19:21.998Z,-3.80
2019-01-19T21:21:51.084Z,-4.00
2019-01-19T21:24:20.211Z,-4.10
2019-01-19T21:26:49.281Z,-4.20
2019-01-19T21:29:18.414Z,-4.20
2019-01-19T21:31:47.493Z,-4.20
2019-01-19T21:34:16.643Z,-4.40
2019-01-19T21:36:45.725Z,-4.20
2019-01-19T21:39:14.736Z,-4.10
2019-01-19T21:41:43.763Z,-4.20
2019-01-19T21:44:12.849Z,-4.10
2019-01-19T21:46:41.914Z,-4.10
2019-01-19T21:49:11.008Z,-4.00
2019-01-19T21:51:40.176Z,-4.10
2019-01-19T21:54:09.561Z,-4.20
2019-01-19T21:56:38.681Z,-4.40
2019-01-19T21:59:07.765Z,-4.40
2019-01-19T22:01:36.821Z,-4.50
2019-01-19T22:04:05.949Z,-4.50
2019-01-19T22:06:34.940Z,-4.40
2019-01-19T22:09:04.889Z,-4.20
2019-01-19T22:11:33.962Z,-4.10
2019-01-19T22:14:03.064Z,-4.30
2019-01-19T22:16:32.119Z,-4.40
2019-01-19T22:19:01.250Z,-4.40
2019-01-19T22:21:30.553Z,-4.30
2019-01-19T22:24:00.012Z,-4.20
2019-01-19T22:26:29.645Z,-4.10
2019-01-19T22:28:58.708Z,-4.10
2019-01-19T22:31:27.960Z,-4.10
2019-01-19T22:33:57.062Z,-4.10
2019-01-19T22:36:26.059Z,-4.10
2019-01-19T22:38:55.093Z,-4.10
2019-01-19T22:41:24.100Z,-4.30
2019-01-19T22:43:53.185Z,-4.40
2019-01-19T22:46:22.174Z,-4.30
2019-01-19T22:48:51.220Z,-4.20
2019-01-19T22:51:20.288Z,-4.10
2019-01-19T22:53:49.368Z,-4.10
2019-01-19T22:56:18.437Z,-4.10
2019-01-19T22:58:47.563Z,-4.20
2019-01-19T23:01:42.583Z,-4.20
2019-01-19T23:04:11.606Z,-4.20
2019-01-19T23:06:41.900Z,-4.30
2019-01-19T23:09:14.586Z,-4.30
2019-01-19T23:11:43.589Z,-4.30
2019-01-19T23:14:13.021Z,-4.30
2019-01-19T23:16:42.094Z,-4.30
2019-01-19T23:19:11.190Z,-4.30
2019-01-19T23:21:40.412Z,-4.30
2019-01-19T23:24:09.492Z,-4.30
2019-01-19T23:26:38.764Z,-4.40
2019-01-19T23:29:07.812Z,-4.40
2019-01-19T23:31:36.716Z,-4.40
2019-01-19T23:34:05.785Z,-4.40
2019-01-19T23:36:34.945Z,-4.40
2019-01-19T23:39:05.958Z,-4.30
2019-01-19T23:41:35.010Z,-4.40
2019-01-19T23:44:04.097Z,-4.40
2019-01-19T23:46:33.092Z,-4.40
2019-01-19T23:49:02.313Z,-4.40
2019-01-19T23:51:31.362Z,-4.40
2019-01-19T23:54:00.428Z,-4.50
2019-01-19T23:56:29.572Z,-4.50
2019-01-19T23:58:58.453Z,-4.50
